sensor_id;sensor_type;location;lat;lon;timestamp;temperature;humidity
71096;DHT22;58753;49.440;11.126;2023-07-31T00:00:49;15.99;74.01
71096;DHT22;58753;49.440;11.126;2023-07-31T00:03:16;16.01;73.98
71096;DHT22;58753;49.440;11.126;2023-07-31T00:05:42;15.98;74.04
71096;DHT22;58753;49.440;11.126;2023-07-31T00:08:09;15.94;74.27
71096;DHT22;58753;49.440;11.126;2023-07-31T00:10:35;15.91;74.49
71096;DHT22;58753;49.440;11.126;2023-07-31T00:13:07;15.82;74.73
71096;DHT22;58753;49.440;11.126;2023-07-31T00:15:35;15.74;75.24
71096;DHT22;58753;49.440;11.126;2023-07-31T00:18:03;15.65;75.60
71096;DHT22;58753;49.440;11.126;2023-07-31T00:20:28;15.59;75.86
71096;DHT22;58753;49.440;11.126;2023-07-31T00:22:54;15.54;76.49
71096;DHT22;58753;49.440;11.126;2023-07-31T00:25:21;15.45;76.56
71096;DHT22;58753;49.440;11.126;2023-07-31T00:27:49;15.41;76.97
71096;DHT22;58753;49.440;11.126;2023-07-31T00:30:15;15.37;77.12
71096;DHT22;58753;49.440;11.126;2023-07-31T00:32:43;15.33;77.35
71096;DHT22;58753;49.440;11.126;2023-07-31T00:35:11;15.24;77.45
71096;DHT22;58753;49.440;11.126;2023-07-31T00:37:37;15.17;77.79
71096;DHT22;58753;49.440;11.126;2023-07-31T00:40:02;15.10;78.00
71096;DHT22;58753;49.440;11.126;2023-07-31T00:42:28;15.06;78.30
71096;DHT22;58753;49.440;11.126;2023-07-31T00:44:54;15.04;78.49
71096;DHT22;58753;49.440;11.126;2023-07-31T00:47:19;15.02;78.66
71096;DHT22;58753;49.440;11.126;2023-07-31T00:49:45;14.99;78.92
71096;DHT22;58753;49.440;11.126;2023-07-31T00:52:11;14.97;79.14
71096;DHT22;58753;49.440;11.126;2023-07-31T00:54:36;14.96;79.30
71096;DHT22;58753;49.440;11.126;2023-07-31T00:57:04;14.93;79.46
71096;DHT22;58753;49.440;11.126;2023-07-31T00:59:30;14.94;79.60
71096;DHT22;58753;49.440;11.126;2023-07-31T01:01:55;14.96;79.70
71096;DHT22;58753;49.440;11.126;2023-07-31T01:04:21;15.00;79.90
71096;DHT22;58753;49.440;11.126;2023-07-31T01:07:11;15.02;79.82
71096;DHT22;58753;49.440;11.126;2023-07-31T01:09:47;15.07;79.96
71096;DHT22;58753;49.440;11.126;2023-07-31T01:12:15;15.07;79.85
71096;DHT22;58753;49.440;11.126;2023-07-31T01:14:51;15.10;79.89
71096;DHT22;58753;49.440;11.126;2023-07-31T01:17:16;15.13;79.83
71096;DHT22;58753;49.440;11.126;2023-07-31T01:19:42;15.13;79.83
71096;DHT22;58753;49.440;11.126;2023-07-31T01:22:30;15.13;80.09
71096;DHT22;58753;49.440;11.126;2023-07-31T01:25:10;15.14;79.85
71096;DHT22;58753;49.440;11.126;2023-07-31T01:27:51;15.16;80.07
71096;DHT22;58753;49.440;11.126;2023-07-31T01:30:25;15.17;80.17
71096;DHT22;58753;49.440;11.126;2023-07-31T01:32:52;15.17;80.27
71096;DHT22;58753;49.440;11.126;2023-07-31T01:35:22;15.17;80.34
71096;DHT22;58753;49.440;11.126;2023-07-31T01:37:47;15.20;80.30
71096;DHT22;58753;49.440;11.126;2023-07-31T01:40:13;15.23;80.24
71096;DHT22;58753;49.440;11.126;2023-07-31T01:42:38;15.24;80.17
71096;DHT22;58753;49.440;11.126;2023-07-31T01:45:04;15.24;80.13
71096;DHT22;58753;49.440;11.126;2023-07-31T01:47:29;15.26;80.10
71096;DHT22;58753;49.440;11.126;2023-07-31T01:49:55;15.24;80.10
71096;DHT22;58753;49.440;11.126;2023-07-31T01:52:20;15.24;80.10
71096;DHT22;58753;49.440;11.126;2023-07-31T01:54:46;15.23;80.07
71096;DHT22;58753;49.440;11.126;2023-07-31T01:57:14;15.24;80.22
71096;DHT22;58753;49.440;11.126;2023-07-31T01:59:39;15.24;80.37
71096;DHT22;58753;49.440;11.126;2023-07-31T02:02:05;15.27;80.38
71096;DHT22;58753;49.440;11.126;2023-07-31T02:04:33;15.27;80.36
71096;DHT22;58753;49.440;11.126;2023-07-31T02:07:00;15.28;80.38
71096;DHT22;58753;49.440;11.126;2023-07-31T02:09:26;15.33;80.44
71096;DHT22;58753;49.440;11.126;2023-07-31T02:11:53;15.34;80.44
71096;DHT22;58753;49.440;11.126;2023-07-31T02:14:19;15.37;80.45
71096;DHT22;58753;49.440;11.126;2023-07-31T02:16:44;15.38;80.46
71096;DHT22;58753;49.440;11.126;2023-07-31T02:19:09;15.43;80.43
71096;DHT22;58753;49.440;11.126;2023-07-31T02:21:35;15.44;80.32
71096;DHT22;58753;49.440;11.126;2023-07-31T02:24:03;15.43;80.08
71096;DHT22;58753;49.440;11.126;2023-07-31T02:26:30;15.37;79.86
71096;DHT22;58753;49.440;11.126;2023-07-31T02:28:58;15.31;79.62
71096;DHT22;58753;49.440;11.126;2023-07-31T02:31:24;15.27;79.40
71096;DHT22;58753;49.440;11.126;2023-07-31T02:33:51;15.26;79.45
71096;DHT22;58753;49.440;11.126;2023-07-31T02:36:17;15.24;79.55
71096;DHT22;58753;49.440;11.126;2023-07-31T02:38:44;15.20;79.47
71096;DHT22;58753;49.440;11.126;2023-07-31T02:41:12;15.19;79.48
71096;DHT22;58753;49.440;11.126;2023-07-31T02:43:38;15.19;79.56
71096;DHT22;58753;49.440;11.126;2023-07-31T02:46:03;15.16;79.53
71096;DHT22;58753;49.440;11.126;2023-07-31T02:48:31;15.14;79.39
71096;DHT22;58753;49.440;11.126;2023-07-31T02:50:56;15.14;79.62
71096;DHT22;58753;49.440;11.126;2023-07-31T02:53:22;15.17;79.62
71096;DHT22;58753;49.440;11.126;2023-07-31T02:55:48;15.17;79.58
71096;DHT22;58753;49.440;11.126;2023-07-31T02:58:13;15.17;79.53
71096;DHT22;58753;49.440;11.126;2023-07-31T03:00:43;15.22;79.48
71096;DHT22;58753;49.440;11.126;2023-07-31T03:03:08;15.19;79.34
71096;DHT22;58753;49.440;11.126;2023-07-31T03:05:33;15.20;79.36
71096;DHT22;58753;49.440;11.126;2023-07-31T03:07:59;15.23;79.40
71096;DHT22;58753;49.440;11.126;2023-07-31T03:10:24;15.23;79.15
71096;DHT22;58753;49.440;11.126;2023-07-31T03:12:50;15.23;79.18
71096;DHT22;58753;49.440;11.126;2023-07-31T03:15:17;15.24;79.25
71096;DHT22;58753;49.440;11.126;2023-07-31T03:17:43;15.23;79.04
71096;DHT22;58753;49.440;11.126;2023-07-31T03:20:08;15.24;79.20
71096;DHT22;58753;49.440;11.126;2023-07-31T03:22:36;15.28;79.39
71096;DHT22;58753;49.440;11.126;2023-07-31T03:25:03;15.27;79.05
71096;DHT22;58753;49.440;11.126;2023-07-31T03:27:28;15.28;79.09
71096;DHT22;58753;49.440;11.126;2023-07-31T03:29:56;15.27;78.87
71096;DHT22;58753;49.440;11.126;2023-07-31T03:32:24;15.30;78.89
71096;DHT22;58753;49.440;11.126;2023-07-31T03:34:52;15.33;78.76
71096;DHT22;58753;49.440;11.126;2023-07-31T03:37:17;15.33;78.47
71096;DHT22;58753;49.440;11.126;2023-07-31T03:39:45;15.35;78.35
71096;DHT22;58753;49.440;11.126;2023-07-31T03:42:10;15.34;78.25
71096;DHT22;58753;49.440;11.126;2023-07-31T03:44:36;15.35;78.19
71096;DHT22;58753;49.440;11.126;2023-07-31T03:47:02;15.33;77.79
71096;DHT22;58753;49.440;11.126;2023-07-31T03:49:30;15.33;77.92
71096;DHT22;58753;49.440;11.126;2023-07-31T03:51:57;15.33;77.82
71096;DHT22;58753;49.440;11.126;2023-07-31T03:54:23;15.31;77.79
71096;DHT22;58753;49.440;11.126;2023-07-31T03:56:48;15.31;77.67
71096;DHT22;58753;49.440;11.126;2023-07-31T03:59:16;15.33;77.57
71096;DHT22;58753;49.440;11.126;2023-07-31T04:01:42;15.31;77.57
71096;DHT22;58753;49.440;11.126;2023-07-31T04:04:07;15.34;77.49
71096;DHT22;58753;49.440;11.126;2023-07-31T04:06:37;15.37;77.39
71096;DHT22;58753;49.440;11.126;2023-07-31T04:09:03;15.37;77.52
71096;DHT22;58753;49.440;11.126;2023-07-31T04:11:28;15.37;77.42
71096;DHT22;58753;49.440;11.126;2023-07-31T04:13:53;15.38;77.32
71096;DHT22;58753;49.440;11.126;2023-07-31T04:16:19;15.38;77.11
71096;DHT22;58753;49.440;11.126;2023-07-31T04:18:46;15.45;77.15
71096;DHT22;58753;49.440;11.126;2023-07-31T04:21:12;15.44;76.92
71096;DHT22;58753;49.440;11.126;2023-07-31T04:23:38;15.45;76.89
71096;DHT22;58753;49.440;11.126;2023-07-31T04:26:08;15.51;76.88
71096;DHT22;58753;49.440;11.126;2023-07-31T04:28:33;15.51;76.72
71096;DHT22;58753;49.440;11.126;2023-07-31T04:31:01;15.51;76.64
71096;DHT22;58753;49.440;11.126;2023-07-31T04:33:26;15.51;76.31
71096;DHT22;58753;49.440;11.126;2023-07-31T04:35:54;15.54;76.32
71096;DHT22;58753;49.440;11.126;2023-07-31T04:38:20;15.51;75.97
71096;DHT22;58753;49.440;11.126;2023-07-31T04:40:48;15.54;76.09
71096;DHT22;58753;49.440;11.126;2023-07-31T04:43:15;15.54;76.22
71096;DHT22;58753;49.440;11.126;2023-07-31T04:45:42;15.51;76.01
71096;DHT22;58753;49.440;11.126;2023-07-31T04:48:10;15.55;76.27
71096;DHT22;58753;49.440;11.126;2023-07-31T04:50:37;15.54;76.14
71096;DHT22;58753;49.440;11.126;2023-07-31T04:53:03;15.57;76.25
71096;DHT22;58753;49.440;11.126;2023-07-31T04:55:28;15.58;76.14
71096;DHT22;58753;49.440;11.126;2023-07-31T04:57:53;15.61;76.13
71096;DHT22;58753;49.440;11.126;2023-07-31T05:00:21;15.61;75.84
71096;DHT22;58753;49.440;11.126;2023-07-31T05:02:49;15.64;75.70
71096;DHT22;58753;49.440;11.126;2023-07-31T05:05:14;15.65;75.68
71096;DHT22;58753;49.440;11.126;2023-07-31T05:07:40;15.67;75.54
71096;DHT22;58753;49.440;11.126;2023-07-31T05:10:06;15.68;75.35
71096;DHT22;58753;49.440;11.126;2023-07-31T05:12:31;15.67;75.10
71096;DHT22;58753;49.440;11.126;2023-07-31T05:14:59;15.71;75.30
71096;DHT22;58753;49.440;11.126;2023-07-31T05:17:27;15.72;75.20
71096;DHT22;58753;49.440;11.126;2023-07-31T05:19:52;15.74;74.93
71096;DHT22;58753;49.440;11.126;2023-07-31T05:22:17;15.75;75.03
71096;DHT22;58753;49.440;11.126;2023-07-31T05:24:45;15.79;74.95
71096;DHT22;58753;49.440;11.126;2023-07-31T05:27:10;15.81;74.91
71096;DHT22;58753;49.440;11.126;2023-07-31T05:29:37;15.85;74.83
71096;DHT22;58753;49.440;11.126;2023-07-31T05:32:03;15.88;74.70
71096;DHT22;58753;49.440;11.126;2023-07-31T05:34:28;15.91;74.72
71096;DHT22;58753;49.440;11.126;2023-07-31T05:36:54;15.95;74.62
71096;DHT22;58753;49.440;11.126;2023-07-31T05:39:21;15.96;74.44
71096;DHT22;58753;49.440;11.126;2023-07-31T05:41:47;15.99;74.35
71096;DHT22;58753;49.440;11.126;2023-07-31T05:44:14;16.02;74.07
71096;DHT22;58753;49.440;11.126;2023-07-31T05:46:40;16.05;73.95
71096;DHT22;58753;49.440;11.126;2023-07-31T05:49:07;16.10;73.69
71096;DHT22;58753;49.440;11.126;2023-07-31T05:51:35;16.16;73.56
71096;DHT22;58753;49.440;11.126;2023-07-31T05:54:03;16.18;73.49
71096;DHT22;58753;49.440;11.126;2023-07-31T05:56:30;16.20;73.08
71096;DHT22;58753;49.440;11.126;2023-07-31T05:59:01;16.23;72.83
71096;DHT22;58753;49.440;11.126;2023-07-31T06:01:28;16.29;72.68
71096;DHT22;58753;49.440;11.126;2023-07-31T06:03:53;16.34;72.59
71096;DHT22;58753;49.440;11.126;2023-07-31T06:06:18;16.40;72.54
71096;DHT22;58753;49.440;11.126;2023-07-31T06:08:46;16.42;72.36
71096;DHT22;58753;49.440;11.126;2023-07-31T06:11:12;16.46;72.28
71096;DHT22;58753;49.440;11.126;2023-07-31T06:13:39;16.52;72.48
71096;DHT22;58753;49.440;11.126;2023-07-31T06:16:05;16.55;72.31
71096;DHT22;58753;49.440;11.126;2023-07-31T06:18:36;16.60;72.39
71096;DHT22;58753;49.440;11.126;2023-07-31T06:21:04;16.64;72.14
71096;DHT22;58753;49.440;11.126;2023-07-31T06:23:29;16.69;71.75
71096;DHT22;58753;49.440;11.126;2023-07-31T06:25:55;16.76;71.37
71096;DHT22;58753;49.440;11.126;2023-07-31T06:28:20;16.83;71.14
71096;DHT22;58753;49.440;11.126;2023-07-31T06:30:48;16.91;71.17
71096;DHT22;58753;49.440;11.126;2023-07-31T06:33:13;17.00;71.16
71096;DHT22;58753;49.440;11.126;2023-07-31T06:35:39;17.06;70.81
71096;DHT22;58753;49.440;11.126;2023-07-31T06:38:04;17.13;70.41
71096;DHT22;58753;49.440;11.126;2023-07-31T06:40:32;17.14;70.24
71096;DHT22;58753;49.440;11.126;2023-07-31T06:42:57;17.21;70.14
71096;DHT22;58753;49.440;11.126;2023-07-31T06:45:23;17.27;70.08
71096;DHT22;58753;49.440;11.126;2023-07-31T06:47:48;17.32;69.96
71096;DHT22;58753;49.440;11.126;2023-07-31T06:50:14;17.38;69.87
71096;DHT22;58753;49.440;11.126;2023-07-31T06:52:39;17.45;69.75
71096;DHT22;58753;49.440;11.126;2023-07-31T06:57:49;17.56;68.95
71096;DHT22;58753;49.440;11.126;2023-07-31T07:00:15;17.59;68.31
71096;DHT22;58753;49.440;11.126;2023-07-31T07:02:42;17.66;68.16
71096;DHT22;58753;49.440;11.126;2023-07-31T07:05:08;17.72;67.49
71096;DHT22;58753;49.440;11.126;2023-07-31T07:07:34;17.79;67.34
71096;DHT22;58753;49.440;11.126;2023-07-31T07:10:00;17.81;66.74
71096;DHT22;58753;49.440;11.126;2023-07-31T07:12:28;17.87;66.70
71096;DHT22;58753;49.440;11.126;2023-07-31T07:14:53;17.90;66.00
71096;DHT22;58753;49.440;11.126;2023-07-31T07:17:25;17.97;65.98
71096;DHT22;58753;49.440;11.126;2023-07-31T07:19:51;18.06;66.11
71096;DHT22;58753;49.440;11.126;2023-07-31T07:22:17;18.09;65.74
71096;DHT22;58753;49.440;11.126;2023-07-31T07:24:45;18.13;65.82
71096;DHT22;58753;49.440;11.126;2023-07-31T07:27:10;18.19;65.69
71096;DHT22;58753;49.440;11.126;2023-07-31T07:29:38;18.22;65.34
71096;DHT22;58753;49.440;11.126;2023-07-31T07:32:06;18.26;65.11
71096;DHT22;58753;49.440;11.126;2023-07-31T07:34:31;18.32;65.01
71096;DHT22;58753;49.440;11.126;2023-07-31T07:36:59;18.34;64.34
71096;DHT22;58753;49.440;11.126;2023-07-31T07:39:24;18.36;64.36
71096;DHT22;58753;49.440;11.126;2023-07-31T07:41:50;18.38;64.61
71096;DHT22;58753;49.440;11.126;2023-07-31T07:44:17;18.38;64.64
71096;DHT22;58753;49.440;11.126;2023-07-31T07:46:45;18.40;64.59
71096;DHT22;58753;49.440;11.126;2023-07-31T07:49:11;18.44;64.52
71096;DHT22;58753;49.440;11.126;2023-07-31T07:51:41;18.54;64.63
71096;DHT22;58753;49.440;11.126;2023-07-31T07:54:06;18.57;64.72
71096;DHT22;58753;49.440;11.126;2023-07-31T07:56:34;18.67;64.70
71096;DHT22;58753;49.440;11.126;2023-07-31T07:59:01;18.70;64.17
71096;DHT22;58753;49.440;11.126;2023-07-31T08:01:29;18.74;64.01
71096;DHT22;58753;49.440;11.126;2023-07-31T08:03:59;18.81;63.71
71096;DHT22;58753;49.440;11.126;2023-07-31T08:06:24;18.90;63.63
71096;DHT22;58753;49.440;11.126;2023-07-31T08:08:50;18.97;63.07
71096;DHT22;58753;49.440;11.126;2023-07-31T08:11:15;19.07;63.02
71096;DHT22;58753;49.440;11.126;2023-07-31T08:13:41;19.16;62.98
71096;DHT22;58753;49.440;11.126;2023-07-31T08:16:06;19.16;62.27
71096;DHT22;58753;49.440;11.126;2023-07-31T08:18:31;19.22;61.83
71096;DHT22;58753;49.440;11.126;2023-07-31T08:20:57;19.28;61.51
71096;DHT22;58753;49.440;11.126;2023-07-31T08:23:23;19.31;61.06
71096;DHT22;58753;49.440;11.126;2023-07-31T08:25:50;19.38;60.97
71096;DHT22;58753;49.440;11.126;2023-07-31T08:28:16;19.43;60.79
71096;DHT22;58753;49.440;11.126;2023-07-31T08:30:44;19.43;60.58
71096;DHT22;58753;49.440;11.126;2023-07-31T08:33:09;19.48;60.58
71096;DHT22;58753;49.440;11.126;2023-07-31T08:35:36;19.55;60.65
71096;DHT22;58753;49.440;11.126;2023-07-31T08:38:04;19.67;60.78
71096;DHT22;58753;49.440;11.126;2023-07-31T08:40:30;19.74;60.23
71096;DHT22;58753;49.440;11.126;2023-07-31T08:42:56;19.82;59.90
71096;DHT22;58753;49.440;11.126;2023-07-31T08:45:22;19.80;59.45
71096;DHT22;58753;49.440;11.126;2023-07-31T08:47:53;19.80;59.30
71096;DHT22;58753;49.440;11.126;2023-07-31T08:50:19;19.79;59.41
71096;DHT22;58753;49.440;11.126;2023-07-31T08:52:46;19.80;59.49
71096;DHT22;58753;49.440;11.126;2023-07-31T08:55:16;19.83;59.82
71096;DHT22;58753;49.440;11.126;2023-07-31T08:57:51;19.93;59.70
71096;DHT22;58753;49.440;11.126;2023-07-31T09:00:17;19.92;59.33
71096;DHT22;58753;49.440;11.126;2023-07-31T09:05:10;19.98;59.45
71096;DHT22;58753;49.440;11.126;2023-07-31T09:07:39;20.01;59.10
71096;DHT22;58753;49.440;11.126;2023-07-31T09:10:05;20.09;59.10
71096;DHT22;58753;49.440;11.126;2023-07-31T09:12:33;20.13;58.77
71096;DHT22;58753;49.440;11.126;2023-07-31T09:14:59;20.16;58.55
71096;DHT22;58753;49.440;11.126;2023-07-31T09:17:35;20.27;58.39
71096;DHT22;58753;49.440;11.126;2023-07-31T09:20:18;20.38;58.50
71096;DHT22;58753;49.440;11.126;2023-07-31T09:22:45;20.52;58.18
71096;DHT22;58753;49.440;11.126;2023-07-31T09:25:23;20.69;57.90
71096;DHT22;58753;49.440;11.126;2023-07-31T09:30:18;20.85;57.04
71096;DHT22;58753;49.440;11.126;2023-07-31T09:32:47;20.96;56.50
71096;DHT22;58753;49.440;11.126;2023-07-31T09:37:38;20.98;55.81
71096;DHT22;58753;49.440;11.126;2023-07-31T09:40:06;20.99;56.32
71096;DHT22;58753;49.440;11.126;2023-07-31T09:42:34;21.12;56.36
71096;DHT22;58753;49.440;11.126;2023-07-31T09:45:09;21.16;55.76
71096;DHT22;58753;49.440;11.126;2023-07-31T09:47:35;21.30;56.32
71096;DHT22;58753;49.440;11.126;2023-07-31T09:50:03;21.28;55.76
71096;DHT22;58753;49.440;11.126;2023-07-31T09:52:32;21.19;55.43
71096;DHT22;58753;49.440;11.126;2023-07-31T09:54:57;21.25;55.25
71096;DHT22;58753;49.440;11.126;2023-07-31T09:57:23;21.19;55.17
71096;DHT22;58753;49.440;11.126;2023-07-31T09:59:52;21.19;55.47
71096;DHT22;58753;49.440;11.126;2023-07-31T10:02:21;21.19;54.91
71096;DHT22;58753;49.440;11.126;2023-07-31T10:04:52;21.10;54.85
71096;DHT22;58753;49.440;11.126;2023-07-31T10:07:22;21.08;55.02
71096;DHT22;58753;49.440;11.126;2023-07-31T10:09:49;21.13;55.08
71096;DHT22;58753;49.440;11.126;2023-07-31T10:12:19;21.15;55.00
71096;DHT22;58753;49.440;11.126;2023-07-31T10:14:46;21.25;55.30
71096;DHT22;58753;49.440;11.126;2023-07-31T10:17:13;21.20;54.91
71096;DHT22;58753;49.440;11.126;2023-07-31T10:19:41;21.20;55.27
71096;DHT22;58753;49.440;11.126;2023-07-31T10:22:09;21.15;54.95
71096;DHT22;58753;49.440;11.126;2023-07-31T10:24:36;21.15;55.39
71096;DHT22;58753;49.440;11.126;2023-07-31T10:27:02;21.10;55.72
71096;DHT22;58753;49.440;11.126;2023-07-31T10:29:29;21.00;55.68
71096;DHT22;58753;49.440;11.126;2023-07-31T10:31:56;20.96;56.13
71096;DHT22;58753;49.440;11.126;2023-07-31T10:34:25;20.95;56.28
71096;DHT22;58753;49.440;11.126;2023-07-31T10:37:23;20.99;56.64
71096;DHT22;58753;49.440;11.126;2023-07-31T10:42:35;21.33;56.73
71096;DHT22;58753;49.440;11.126;2023-07-31T10:45:13;21.42;55.64
71096;DHT22;58753;49.440;11.126;2023-07-31T10:47:46;21.56;55.49
71096;DHT22;58753;49.440;11.126;2023-07-31T10:50:18;21.60;54.85
71096;DHT22;58753;49.440;11.126;2023-07-31T10:52:51;21.62;54.78
71096;DHT22;58753;49.440;11.126;2023-07-31T10:58:11;21.59;54.60
71096;DHT22;58753;49.440;11.126;2023-07-31T11:00:41;21.62;54.44
71096;DHT22;58753;49.440;11.126;2023-07-31T11:03:12;21.91;54.88
71096;DHT22;58753;49.440;11.126;2023-07-31T11:08:14;22.05;52.42
71096;DHT22;58753;49.440;11.126;2023-07-31T11:10:40;21.97;52.73
71096;DHT22;58753;49.440;11.126;2023-07-31T11:13:06;21.84;52.76
71096;DHT22;58753;49.440;11.126;2023-07-31T11:15:31;21.70;52.91
71096;DHT22;58753;49.440;11.126;2023-07-31T11:17:56;21.56;53.28
71096;DHT22;58753;49.440;11.126;2023-07-31T11:20:25;21.47;53.86
71096;DHT22;58753;49.440;11.126;2023-07-31T11:22:52;21.39;54.14
71096;DHT22;58753;49.440;11.126;2023-07-31T11:25:20;21.32;54.59
71096;DHT22;58753;49.440;11.126;2023-07-31T11:27:50;21.28;54.70
71096;DHT22;58753;49.440;11.126;2023-07-31T11:30:19;21.25;55.02
71096;DHT22;58753;49.440;11.126;2023-07-31T11:32:44;21.19;55.07
71096;DHT22;58753;49.440;11.126;2023-07-31T11:35:12;21.19;55.37
71096;DHT22;58753;49.440;11.126;2023-07-31T11:37:44;21.15;55.58
71096;DHT22;58753;49.440;11.126;2023-07-31T11:40:13;21.12;55.62
71096;DHT22;58753;49.440;11.126;2023-07-31T11:42:41;21.05;56.02
71096;DHT22;58753;49.440;11.126;2023-07-31T11:45:11;21.05;56.19
71096;DHT22;58753;49.440;11.126;2023-07-31T11:47:37;21.06;55.85
71096;DHT22;58753;49.440;11.126;2023-07-31T11:50:04;21.12;55.99
71096;DHT22;58753;49.440;11.126;2023-07-31T11:52:33;21.13;56.12
71096;DHT22;58753;49.440;11.126;2023-07-31T11:54:59;21.18;55.53
71096;DHT22;58753;49.440;11.126;2023-07-31T11:57:25;21.22;55.18
71096;DHT22;58753;49.440;11.126;2023-07-31T11:59:51;21.22;54.81
71096;DHT22;58753;49.440;11.126;2023-07-31T12:02:17;21.19;54.52
71096;DHT22;58753;49.440;11.126;2023-07-31T12:04:46;21.25;54.54
71096;DHT22;58753;49.440;11.126;2023-07-31T12:07:12;21.32;54.67
71096;DHT22;58753;49.440;11.126;2023-07-31T12:09:38;21.35;54.58
71096;DHT22;58753;49.440;11.126;2023-07-31T12:12:09;21.33;54.38
71096;DHT22;58753;49.440;11.126;2023-07-31T12:14:35;21.30;54.21
71096;DHT22;58753;49.440;11.126;2023-07-31T12:17:09;21.29;54.07
71096;DHT22;58753;49.440;11.126;2023-07-31T12:19:37;21.29;54.39
71096;DHT22;58753;49.440;11.126;2023-07-31T12:22:14;21.36;54.49
71096;DHT22;58753;49.440;11.126;2023-07-31T12:24:44;21.45;54.66
71096;DHT22;58753;49.440;11.126;2023-07-31T12:27:15;21.52;54.47
71096;DHT22;58753;49.440;11.126;2023-07-31T12:29:43;21.59;54.58
71096;DHT22;58753;49.440;11.126;2023-07-31T12:32:23;21.64;54.01
71096;DHT22;58753;49.440;11.126;2023-07-31T12:34:52;21.74;54.04
71096;DHT22;58753;49.440;11.126;2023-07-31T12:37:20;21.80;53.05
71096;DHT22;58753;49.440;11.126;2023-07-31T12:39:48;21.86;52.79
71096;DHT22;58753;49.440;11.126;2023-07-31T12:42:13;21.90;52.57
71096;DHT22;58753;49.440;11.126;2023-07-31T12:44:38;21.93;52.04
71096;DHT22;58753;49.440;11.126;2023-07-31T12:47:04;21.94;51.66
71096;DHT22;58753;49.440;11.126;2023-07-31T12:49:32;21.96;51.69
71096;DHT22;58753;49.440;11.126;2023-07-31T12:52:00;21.98;51.60
71096;DHT22;58753;49.440;11.126;2023-07-31T12:54:25;21.98;51.47
71096;DHT22;58753;49.440;11.126;2023-07-31T12:56:51;21.98;51.60
71096;DHT22;58753;49.440;11.126;2023-07-31T12:59:18;21.97;51.66
71096;DHT22;58753;49.440;11.126;2023-07-31T13:01:44;22.00;51.65
71096;DHT22;58753;49.440;11.126;2023-07-31T13:04:12;22.04;51.77
71096;DHT22;58753;49.440;11.126;2023-07-31T13:06:37;22.04;51.79
71096;DHT22;58753;49.440;11.126;2023-07-31T13:09:02;22.05;51.95
71096;DHT22;58753;49.440;11.126;2023-07-31T13:11:29;22.07;52.00
71096;DHT22;58753;49.440;11.126;2023-07-31T13:13:54;22.08;51.72
71096;DHT22;58753;49.440;11.126;2023-07-31T13:16:20;22.10;51.62
71096;DHT22;58753;49.440;11.126;2023-07-31T13:18:45;22.17;51.91
71096;DHT22;58753;49.440;11.126;2023-07-31T13:21:11;22.24;51.98
71096;DHT22;58753;49.440;11.126;2023-07-31T13:23:36;22.35;51.81
71096;DHT22;58753;49.440;11.126;2023-07-31T13:26:01;22.58;52.15
71096;DHT22;58753;49.440;11.126;2023-07-31T13:28:27;22.73;51.44
71096;DHT22;58753;49.440;11.126;2023-07-31T13:30:52;23.07;50.98
71096;DHT22;58753;49.440;11.126;2023-07-31T13:33:18;23.57;51.19
71096;DHT22;58753;49.440;11.126;2023-07-31T13:35:43;23.87;49.17
71096;DHT22;58753;49.440;11.126;2023-07-31T13:38:08;23.96;47.59
71096;DHT22;58753;49.440;11.126;2023-07-31T13:40:34;23.98;47.77
71096;DHT22;58753;49.440;11.126;2023-07-31T13:43:02;23.80;46.80
71096;DHT22;58753;49.440;11.126;2023-07-31T13:45:29;23.96;47.54
71096;DHT22;58753;49.440;11.126;2023-07-31T13:47:55;23.90;47.11
71096;DHT22;58753;49.440;11.126;2023-07-31T13:50:23;23.74;47.33
71096;DHT22;58753;49.440;11.126;2023-07-31T13:52:50;23.87;47.59
71096;DHT22;58753;49.440;11.126;2023-07-31T13:55:18;23.96;47.79
71096;DHT22;58753;49.440;11.126;2023-07-31T13:57:43;23.80;46.83
71096;DHT22;58753;49.440;11.126;2023-07-31T14:00:09;23.63;47.16
71096;DHT22;58753;49.440;11.126;2023-07-31T14:02:35;23.59;47.77
71096;DHT22;58753;49.440;11.126;2023-07-31T14:05:01;23.57;47.11
71096;DHT22;58753;49.440;11.126;2023-07-31T14:07:26;23.67;48.24
71096;DHT22;58753;49.440;11.126;2023-07-31T14:09:51;23.74;47.54
71096;DHT22;58753;49.440;11.126;2023-07-31T14:12:19;23.70;47.20
71096;DHT22;58753;49.440;11.126;2023-07-31T14:14:47;23.67;47.17
71096;DHT22;58753;49.440;11.126;2023-07-31T14:17:15;23.67;47.26
71096;DHT22;58753;49.440;11.126;2023-07-31T14:19:43;23.54;47.22
71096;DHT22;58753;49.440;11.126;2023-07-31T14:22:09;23.45;47.72
71096;DHT22;58753;49.440;11.126;2023-07-31T14:24:34;23.24;47.77
71096;DHT22;58753;49.440;11.126;2023-07-31T14:27:02;23.16;48.35
71096;DHT22;58753;49.440;11.126;2023-07-31T14:29:30;23.12;49.05
71096;DHT22;58753;49.440;11.126;2023-07-31T14:31:55;23.05;49.11
71096;DHT22;58753;49.440;11.126;2023-07-31T14:34:24;22.98;48.60
71096;DHT22;58753;49.440;11.126;2023-07-31T14:36:49;22.91;48.42
71096;DHT22;58753;49.440;11.126;2023-07-31T14:39:14;22.89;48.50
71096;DHT22;58753;49.440;11.126;2023-07-31T14:41:40;22.82;48.76
71096;DHT22;58753;49.440;11.126;2023-07-31T14:44:05;22.78;48.70
71096;DHT22;58753;49.440;11.126;2023-07-31T14:46:35;22.76;48.62
71096;DHT22;58753;49.440;11.126;2023-07-31T14:49:00;22.76;48.38
71096;DHT22;58753;49.440;11.126;2023-07-31T14:51:26;22.78;48.01
71096;DHT22;58753;49.440;11.126;2023-07-31T14:53:53;22.75;48.18
71096;DHT22;58753;49.440;11.126;2023-07-31T14:56:19;22.68;47.99
71096;DHT22;58753;49.440;11.126;2023-07-31T14:58:44;22.65;48.30
71096;DHT22;58753;49.440;11.126;2023-07-31T15:01:10;22.59;48.72
71096;DHT22;58753;49.440;11.126;2023-07-31T15:03:35;22.52;48.81
71096;DHT22;58753;49.440;11.126;2023-07-31T15:06:00;22.44;48.72
71096;DHT22;58753;49.440;11.126;2023-07-31T15:08:28;22.40;48.76
71096;DHT22;58753;49.440;11.126;2023-07-31T15:10:54;22.34;48.95
71096;DHT22;58753;49.440;11.126;2023-07-31T15:13:24;22.30;49.24
71096;DHT22;58753;49.440;11.126;2023-07-31T15:15:50;22.30;49.60
71096;DHT22;58753;49.440;11.126;2023-07-31T15:18:15;22.24;49.76
71096;DHT22;58753;49.440;11.126;2023-07-31T15:20:43;22.21;49.80
71096;DHT22;58753;49.440;11.126;2023-07-31T15:23:11;22.20;50.03
71096;DHT22;58753;49.440;11.126;2023-07-31T15:25:39;22.15;50.05
71096;DHT22;58753;49.440;11.126;2023-07-31T15:28:04;22.11;50.04
71096;DHT22;58753;49.440;11.126;2023-07-31T15:30:32;22.10;50.17
71096;DHT22;58753;49.440;11.126;2023-07-31T15:32:58;22.11;50.27